Terminal Aerodrome Forecast
Issued by NWS

Home | Current Version | Previous Version | Text Only | Print | Product List | Glossary On
Versions: 1 2 3 4 5 6 7 8 9 10 11 12 13 14 15
000
FTUS43 KGRR 292340
TAFJXN
TAF
KJXN 292340Z 3000/3024 07009KT P6SM VCTS BKN035CB
     FM300400 09003KT 5SM -SHRA BR OVC025
     FM301600 07007KT P6SM VCTS BKN035CB=

USA.gov is the U.S. government's official web portal to all federal, state and local government web resources and services.